sensor_id;sensor_type;location;lat;lon;timestamp;P1;durP1;ratioP1;P2;durP2;ratioP2
66437;SDS011;54537;47.972;11.662;2024-01-06T00:02:01;16.88;;;8.75;;
66437;SDS011;54537;47.972;11.662;2024-01-06T00:04:28;15.37;;;8.00;;
66437;SDS011;54537;47.972;11.662;2024-01-06T00:06:54;13.20;;;7.60;;
66437;SDS011;54537;47.972;11.662;2024-01-06T00:09:21;15.52;;;8.02;;
66437;SDS011;54537;47.972;11.662;2024-01-06T00:11:49;16.25;;;7.97;;
66437;SDS011;54537;47.972;11.662;2024-01-06T00:14:15;16.25;;;8.50;;
66437;SDS011;54537;47.972;11.662;2024-01-06T00:16:42;15.32;;;8.27;;
66437;SDS011;54537;47.972;11.662;2024-01-06T00:19:08;16.25;;;8.45;;
66437;SDS011;54537;47.972;11.662;2024-01-06T00:21:35;16.83;;;8.90;;
66437;SDS011;54537;47.972;11.662;2024-01-06T00:24:01;15.38;;;8.32;;
66437;SDS011;54537;47.972;11.662;2024-01-06T00:26:28;17.48;;;8.77;;
66437;SDS011;54537;47.972;11.662;2024-01-06T00:28:56;16.48;;;8.48;;
66437;SDS011;54537;47.972;11.662;2024-01-06T00:31:22;14.20;;;8.15;;
66437;SDS011;54537;47.972;11.662;2024-01-06T00:33:49;14.52;;;7.80;;
66437;SDS011;54537;47.972;11.662;2024-01-06T00:36:15;16.02;;;8.05;;
66437;SDS011;54537;47.972;11.662;2024-01-06T00:38:42;13.27;;;6.85;;
66437;SDS011;54537;47.972;11.662;2024-01-06T00:41:08;11.77;;;6.60;;
66437;SDS011;54537;47.972;11.662;2024-01-06T00:43:35;11.88;;;6.32;;
66437;SDS011;54537;47.972;11.662;2024-01-06T00:46:03;10.85;;;6.10;;
66437;SDS011;54537;47.972;11.662;2024-01-06T00:48:29;10.80;;;5.60;;
66437;SDS011;54537;47.972;11.662;2024-01-06T00:50:56;10.90;;;5.95;;
66437;SDS011;54537;47.972;11.662;2024-01-06T00:53:22;10.13;;;5.63;;
66437;SDS011;54537;47.972;11.662;2024-01-06T00:55:49;12.20;;;6.18;;
66437;SDS011;54537;47.972;11.662;2024-01-06T00:58:15;7.85;;;4.22;;
66437;SDS011;54537;47.972;11.662;2024-01-06T01:00:42;5.33;;;2.40;;
66437;SDS011;54537;47.972;11.662;2024-01-06T01:03:10;3.65;;;1.90;;
66437;SDS011;54537;47.972;11.662;2024-01-06T01:05:36;4.88;;;2.40;;
66437;SDS011;54537;47.972;11.662;2024-01-06T01:08:03;5.70;;;2.70;;
66437;SDS011;54537;47.972;11.662;2024-01-06T01:10:30;6.28;;;2.80;;
66437;SDS011;54537;47.972;11.662;2024-01-06T01:12:56;5.50;;;2.80;;
66437;SDS011;54537;47.972;11.662;2024-01-06T01:15:23;6.13;;;3.23;;
66437;SDS011;54537;47.972;11.662;2024-01-06T01:17:49;6.57;;;3.08;;
66437;SDS011;54537;47.972;11.662;2024-01-06T01:20:17;6.13;;;3.42;;
66437;SDS011;54537;47.972;11.662;2024-01-06T01:22:44;6.83;;;3.10;;
66437;SDS011;54537;47.972;11.662;2024-01-06T01:25:10;5.78;;;2.60;;
66437;SDS011;54537;47.972;11.662;2024-01-06T01:27:38;5.50;;;3.03;;
66437;SDS011;54537;47.972;11.662;2024-01-06T01:30:05;6.33;;;3.10;;
66437;SDS011;54537;47.972;11.662;2024-01-06T01:32:32;5.80;;;2.72;;
66437;SDS011;54537;47.972;11.662;2024-01-06T01:34:58;5.28;;;2.70;;
66437;SDS011;54537;47.972;11.662;2024-01-06T01:37:26;4.57;;;2.53;;
66437;SDS011;54537;47.972;11.662;2024-01-06T01:39:53;5.30;;;2.50;;
66437;SDS011;54537;47.972;11.662;2024-01-06T01:42:19;3.80;;;2.08;;
66437;SDS011;54537;47.972;11.662;2024-01-06T01:44:46;4.32;;;2.00;;
66437;SDS011;54537;47.972;11.662;2024-01-06T01:47:12;5.10;;;1.90;;
66437;SDS011;54537;47.972;11.662;2024-01-06T01:49:43;3.47;;;1.92;;
66437;SDS011;54537;47.972;11.662;2024-01-06T01:52:10;3.95;;;1.77;;
66437;SDS011;54537;47.972;11.662;2024-01-06T01:54:38;4.25;;;1.70;;
66437;SDS011;54537;47.972;11.662;2024-01-06T01:57:04;3.25;;;1.60;;
66437;SDS011;54537;47.972;11.662;2024-01-06T01:59:31;3.50;;;1.70;;
66437;SDS011;54537;47.972;11.662;2024-01-06T02:01:57;2.22;;;1.27;;
66437;SDS011;54537;47.972;11.662;2024-01-06T02:04:24;3.15;;;1.30;;
66437;SDS011;54537;47.972;11.662;2024-01-06T02:06:51;2.15;;;1.10;;
66437;SDS011;54537;47.972;11.662;2024-01-06T02:09:18;1.30;;;0.82;;
66437;SDS011;54537;47.972;11.662;2024-01-06T02:11:46;1.40;;;0.70;;
66437;SDS011;54537;47.972;11.662;2024-01-06T02:14:12;1.60;;;0.85;;
66437;SDS011;54537;47.972;11.662;2024-01-06T02:16:39;0.98;;;0.60;;
66437;SDS011;54537;47.972;11.662;2024-01-06T02:19:05;1.00;;;0.80;;
66437;SDS011;54537;47.972;11.662;2024-01-06T02:21:34;1.17;;;0.80;;
66437;SDS011;54537;47.972;11.662;2024-01-06T02:24:03;1.70;;;0.98;;
66437;SDS011;54537;47.972;11.662;2024-01-06T02:26:30;1.73;;;1.00;;
66437;SDS011;54537;47.972;11.662;2024-01-06T02:28:56;1.55;;;0.88;;
66437;SDS011;54537;47.972;11.662;2024-01-06T02:31:23;3.13;;;0.82;;
66437;SDS011;54537;47.972;11.662;2024-01-06T02:33:49;2.10;;;1.10;;
66437;SDS011;54537;47.972;11.662;2024-01-06T02:36:16;1.40;;;0.80;;
66437;SDS011;54537;47.972;11.662;2024-01-06T02:38:42;1.67;;;1.00;;
66437;SDS011;54537;47.972;11.662;2024-01-06T02:41:10;1.40;;;0.73;;
66437;SDS011;54537;47.972;11.662;2024-01-06T02:43:36;1.95;;;0.98;;
66437;SDS011;54537;47.972;11.662;2024-01-06T02:46:03;0.70;;;0.70;;
66437;SDS011;54537;47.972;11.662;2024-01-06T02:48:29;0.50;;;0.50;;
66437;SDS011;54537;47.972;11.662;2024-01-06T02:50:56;0.60;;;0.43;;
66437;SDS011;54537;47.972;11.662;2024-01-06T02:53:23;0.70;;;0.40;;
66437;SDS011;54537;47.972;11.662;2024-01-06T02:55:49;0.57;;;0.50;;
66437;SDS011;54537;47.972;11.662;2024-01-06T02:58:17;0.40;;;0.40;;
66437;SDS011;54537;47.972;11.662;2024-01-06T03:00:43;0.70;;;0.60;;
66437;SDS011;54537;47.972;11.662;2024-01-06T03:03:10;0.40;;;0.40;;
66437;SDS011;54537;47.972;11.662;2024-01-06T03:05:36;0.63;;;0.63;;
66437;SDS011;54537;47.972;11.662;2024-01-06T03:08:03;0.50;;;0.50;;
66437;SDS011;54537;47.972;11.662;2024-01-06T03:10:30;0.80;;;0.50;;
66437;SDS011;54537;47.972;11.662;2024-01-06T03:12:57;0.60;;;0.52;;
66437;SDS011;54537;47.972;11.662;2024-01-06T03:15:24;0.60;;;0.60;;
66437;SDS011;54537;47.972;11.662;2024-01-06T03:17:51;1.02;;;0.70;;
66437;SDS011;54537;47.972;11.662;2024-01-06T03:20:18;0.50;;;0.50;;
66437;SDS011;54537;47.972;11.662;2024-01-06T03:22:44;1.08;;;0.60;;
66437;SDS011;54537;47.972;11.662;2024-01-06T03:25:12;0.50;;;0.50;;
66437;SDS011;54537;47.972;11.662;2024-01-06T03:27:38;0.70;;;0.60;;
66437;SDS011;54537;47.972;11.662;2024-01-06T03:30:05;0.50;;;0.50;;
66437;SDS011;54537;47.972;11.662;2024-01-06T03:32:34;0.50;;;0.50;;
66437;SDS011;54537;47.972;11.662;2024-01-06T03:35:00;0.63;;;0.50;;
66437;SDS011;54537;47.972;11.662;2024-01-06T03:37:27;0.60;;;0.60;;
66437;SDS011;54537;47.972;11.662;2024-01-06T03:39:53;0.73;;;0.65;;
66437;SDS011;54537;47.972;11.662;2024-01-06T03:42:20;0.80;;;0.80;;
66437;SDS011;54537;47.972;11.662;2024-01-06T03:44:46;0.70;;;0.70;;
66437;SDS011;54537;47.972;11.662;2024-01-06T03:47:13;1.33;;;0.90;;
66437;SDS011;54537;47.972;11.662;2024-01-06T03:49:41;1.40;;;0.93;;
66437;SDS011;54537;47.972;11.662;2024-01-06T03:52:07;1.50;;;0.80;;
66437;SDS011;54537;47.972;11.662;2024-01-06T03:54:34;1.30;;;0.90;;
66437;SDS011;54537;47.972;11.662;2024-01-06T03:57:00;1.10;;;0.90;;
66437;SDS011;54537;47.972;11.662;2024-01-06T03:59:26;1.70;;;1.10;;
66437;SDS011;54537;47.972;11.662;2024-01-06T04:01:53;0.98;;;0.80;;
66437;SDS011;54537;47.972;11.662;2024-01-06T04:04:19;1.63;;;0.80;;
66437;SDS011;54537;47.972;11.662;2024-01-06T04:06:47;1.35;;;0.90;;
66437;SDS011;54537;47.972;11.662;2024-01-06T04:09:14;1.30;;;0.90;;
66437;SDS011;54537;47.972;11.662;2024-01-06T04:11:40;1.97;;;1.10;;
66437;SDS011;54537;47.972;11.662;2024-01-06T04:14:07;1.30;;;0.90;;
66437;SDS011;54537;47.972;11.662;2024-01-06T04:16:33;1.10;;;1.00;;
66437;SDS011;54537;47.972;11.662;2024-01-06T04:19:00;1.33;;;1.02;;
66437;SDS011;54537;47.972;11.662;2024-01-06T04:21:26;1.35;;;0.85;;
66437;SDS011;54537;47.972;11.662;2024-01-06T04:23:54;1.73;;;0.93;;
66437;SDS011;54537;47.972;11.662;2024-01-06T04:26:21;1.40;;;0.85;;
66437;SDS011;54537;47.972;11.662;2024-01-06T04:28:48;2.10;;;0.85;;
66437;SDS011;54537;47.972;11.662;2024-01-06T04:31:14;1.13;;;0.80;;
66437;SDS011;54537;47.972;11.662;2024-01-06T04:33:41;1.65;;;0.70;;
66437;SDS011;54537;47.972;11.662;2024-01-06T04:36:07;0.60;;;0.57;;
66437;SDS011;54537;47.972;11.662;2024-01-06T04:38:34;0.80;;;0.70;;
66437;SDS011;54537;47.972;11.662;2024-01-06T04:41:02;0.65;;;0.63;;
66437;SDS011;54537;47.972;11.662;2024-01-06T04:43:28;0.93;;;0.60;;
66437;SDS011;54537;47.972;11.662;2024-01-06T04:45:55;0.77;;;0.57;;
66437;SDS011;54537;47.972;11.662;2024-01-06T04:48:22;0.60;;;0.60;;
66437;SDS011;54537;47.972;11.662;2024-01-06T04:50:48;1.45;;;0.50;;
66437;SDS011;54537;47.972;11.662;2024-01-06T04:53:15;0.40;;;0.30;;
66437;SDS011;54537;47.972;11.662;2024-01-06T04:55:41;0.30;;;0.30;;
66437;SDS011;54537;47.972;11.662;2024-01-06T04:58:09;0.95;;;0.50;;
66437;SDS011;54537;47.972;11.662;2024-01-06T05:00:36;1.35;;;0.50;;
66437;SDS011;54537;47.972;11.662;2024-01-06T05:03:02;0.80;;;0.32;;
66437;SDS011;54537;47.972;11.662;2024-01-06T05:05:30;2.15;;;0.40;;
66437;SDS011;54537;47.972;11.662;2024-01-06T05:07:56;1.48;;;0.50;;
66437;SDS011;54537;47.972;11.662;2024-01-06T05:10:24;0.50;;;0.40;;
66437;SDS011;54537;47.972;11.662;2024-01-06T05:12:50;0.75;;;0.30;;
66437;SDS011;54537;47.972;11.662;2024-01-06T05:15:18;2.58;;;1.13;;
66437;SDS011;54537;47.972;11.662;2024-01-06T05:17:45;1.33;;;0.73;;
66437;SDS011;54537;47.972;11.662;2024-01-06T05:20:12;0.80;;;0.52;;
66437;SDS011;54537;47.972;11.662;2024-01-06T05:22:38;0.80;;;0.80;;
66437;SDS011;54537;47.972;11.662;2024-01-06T05:25:05;0.38;;;0.38;;
66437;SDS011;54537;47.972;11.662;2024-01-06T05:27:32;0.50;;;0.50;;
66437;SDS011;54537;47.972;11.662;2024-01-06T05:29:58;0.70;;;0.52;;
66437;SDS011;54537;47.972;11.662;2024-01-06T05:32:26;1.02;;;0.55;;
66437;SDS011;54537;47.972;11.662;2024-01-06T05:34:53;0.77;;;0.52;;
66437;SDS011;54537;47.972;11.662;2024-01-06T05:37:19;1.38;;;0.60;;
66437;SDS011;54537;47.972;11.662;2024-01-06T05:39:46;1.52;;;0.63;;
66437;SDS011;54537;47.972;11.662;2024-01-06T05:42:12;1.10;;;0.65;;
66437;SDS011;54537;47.972;11.662;2024-01-06T05:44:39;0.52;;;0.40;;
66437;SDS011;54537;47.972;11.662;2024-01-06T05:47:08;2.00;;;0.47;;
66437;SDS011;54537;47.972;11.662;2024-01-06T05:49:36;0.90;;;0.70;;
66437;SDS011;54537;47.972;11.662;2024-01-06T05:52:07;0.70;;;0.68;;
66437;SDS011;54537;47.972;11.662;2024-01-06T05:54:34;1.00;;;0.63;;
66437;SDS011;54537;47.972;11.662;2024-01-06T05:57:00;1.48;;;0.93;;
66437;SDS011;54537;47.972;11.662;2024-01-06T05:59:27;1.38;;;0.95;;
66437;SDS011;54537;47.972;11.662;2024-01-06T06:01:54;1.30;;;0.73;;
66437;SDS011;54537;47.972;11.662;2024-01-06T06:04:20;1.05;;;0.75;;
66437;SDS011;54537;47.972;11.662;2024-01-06T06:06:48;1.50;;;0.85;;
66437;SDS011;54537;47.972;11.662;2024-01-06T06:09:14;1.60;;;0.90;;
66437;SDS011;54537;47.972;11.662;2024-01-06T06:11:41;2.13;;;1.00;;
66437;SDS011;54537;47.972;11.662;2024-01-06T06:14:08;1.45;;;0.93;;
66437;SDS011;54537;47.972;11.662;2024-01-06T06:16:34;2.88;;;1.30;;
66437;SDS011;54537;47.972;11.662;2024-01-06T06:19:01;3.55;;;1.23;;
66437;SDS011;54537;47.972;11.662;2024-01-06T06:21:28;1.90;;;1.13;;
66437;SDS011;54537;47.972;11.662;2024-01-06T06:23:56;3.20;;;1.17;;
66437;SDS011;54537;47.972;11.662;2024-01-06T06:26:22;3.10;;;1.52;;
66437;SDS011;54537;47.972;11.662;2024-01-06T06:28:49;2.72;;;1.45;;
66437;SDS011;54537;47.972;11.662;2024-01-06T06:31:15;3.70;;;1.73;;
66437;SDS011;54537;47.972;11.662;2024-01-06T06:33:42;4.10;;;1.63;;
66437;SDS011;54537;47.972;11.662;2024-01-06T06:36:08;2.20;;;1.33;;
66437;SDS011;54537;47.972;11.662;2024-01-06T06:38:35;3.75;;;1.70;;
66437;SDS011;54537;47.972;11.662;2024-01-06T06:41:03;4.43;;;2.08;;
66437;SDS011;54537;47.972;11.662;2024-01-06T06:43:30;3.38;;;1.55;;
66437;SDS011;54537;47.972;11.662;2024-01-06T06:45:56;4.18;;;1.75;;
66437;SDS011;54537;47.972;11.662;2024-01-06T06:48:23;3.35;;;1.38;;
66437;SDS011;54537;47.972;11.662;2024-01-06T06:50:49;2.88;;;1.38;;
66437;SDS011;54537;47.972;11.662;2024-01-06T06:53:16;4.93;;;1.77;;
66437;SDS011;54537;47.972;11.662;2024-01-06T06:55:42;3.92;;;1.75;;
66437;SDS011;54537;47.972;11.662;2024-01-06T06:58:10;3.28;;;1.75;;
66437;SDS011;54537;47.972;11.662;2024-01-06T07:00:37;4.22;;;1.85;;
66437;SDS011;54537;47.972;11.662;2024-01-06T07:03:04;3.80;;;1.50;;
66437;SDS011;54537;47.972;11.662;2024-01-06T07:05:30;4.63;;;1.83;;
66437;SDS011;54537;47.972;11.662;2024-01-06T07:07:59;4.28;;;1.90;;
66437;SDS011;54537;47.972;11.662;2024-01-06T07:10:26;4.28;;;1.90;;
66437;SDS011;54537;47.972;11.662;2024-01-06T07:12:53;3.28;;;1.58;;
66437;SDS011;54537;47.972;11.662;2024-01-06T07:15:20;3.47;;;1.60;;
66437;SDS011;54537;47.972;11.662;2024-01-06T07:17:47;3.50;;;1.83;;
66437;SDS011;54537;47.972;11.662;2024-01-06T07:20:14;4.60;;;2.08;;
66437;SDS011;54537;47.972;11.662;2024-01-06T07:22:40;4.93;;;1.85;;
66437;SDS011;54537;47.972;11.662;2024-01-06T07:25:07;5.07;;;2.17;;
66437;SDS011;54537;47.972;11.662;2024-01-06T07:27:33;4.22;;;1.88;;
66437;SDS011;54537;47.972;11.662;2024-01-06T07:30:00;3.53;;;1.70;;
66437;SDS011;54537;47.972;11.662;2024-01-06T07:32:28;4.43;;;1.45;;
66437;SDS011;54537;47.972;11.662;2024-01-06T07:34:54;3.33;;;1.58;;
66437;SDS011;54537;47.972;11.662;2024-01-06T07:37:21;3.45;;;1.60;;
66437;SDS011;54537;47.972;11.662;2024-01-06T07:39:47;3.67;;;1.67;;
66437;SDS011;54537;47.972;11.662;2024-01-06T07:42:14;2.95;;;1.35;;
66437;SDS011;54537;47.972;11.662;2024-01-06T07:44:40;3.35;;;1.60;;
66437;SDS011;54537;47.972;11.662;2024-01-06T07:47:07;2.00;;;1.40;;
66437;SDS011;54537;47.972;11.662;2024-01-06T07:49:35;3.13;;;1.65;;
66437;SDS011;54537;47.972;11.662;2024-01-06T07:52:01;2.53;;;1.42;;
66437;SDS011;54537;47.972;11.662;2024-01-06T07:54:27;3.20;;;1.45;;
66437;SDS011;54537;47.972;11.662;2024-01-06T07:56:53;3.17;;;1.50;;
66437;SDS011;54537;47.972;11.662;2024-01-06T07:59:20;3.33;;;1.58;;
66437;SDS011;54537;47.972;11.662;2024-01-06T08:01:46;2.60;;;1.33;;
66437;SDS011;54537;47.972;11.662;2024-01-06T08:04:13;1.90;;;1.15;;
66437;SDS011;54537;47.972;11.662;2024-01-06T08:06:41;2.53;;;1.40;;
66437;SDS011;54537;47.972;11.662;2024-01-06T08:09:07;2.50;;;1.20;;
66437;SDS011;54537;47.972;11.662;2024-01-06T08:11:34;3.92;;;1.83;;
66437;SDS011;54537;47.972;11.662;2024-01-06T08:14:01;4.00;;;1.98;;
66437;SDS011;54537;47.972;11.662;2024-01-06T08:16:27;4.13;;;1.65;;
66437;SDS011;54537;47.972;11.662;2024-01-06T08:18:54;3.45;;;1.80;;
66437;SDS011;54537;47.972;11.662;2024-01-06T08:21:20;3.38;;;1.55;;
66437;SDS011;54537;47.972;11.662;2024-01-06T08:23:48;3.88;;;1.98;;
66437;SDS011;54537;47.972;11.662;2024-01-06T08:26:15;3.65;;;2.13;;
66437;SDS011;54537;47.972;11.662;2024-01-06T08:28:41;4.15;;;2.00;;
66437;SDS011;54537;47.972;11.662;2024-01-06T08:31:08;4.65;;;1.80;;
66437;SDS011;54537;47.972;11.662;2024-01-06T08:33:36;5.35;;;2.53;;
66437;SDS011;54537;47.972;11.662;2024-01-06T08:36:02;5.57;;;2.10;;
66437;SDS011;54537;47.972;11.662;2024-01-06T08:38:29;3.20;;;1.73;;
66437;SDS011;54537;47.972;11.662;2024-01-06T08:40:58;4.32;;;1.77;;
66437;SDS011;54537;47.972;11.662;2024-01-06T08:43:24;4.38;;;1.75;;
66437;SDS011;54537;47.972;11.662;2024-01-06T08:45:51;4.50;;;1.83;;
66437;SDS011;54537;47.972;11.662;2024-01-06T08:48:17;4.13;;;1.67;;
66437;SDS011;54537;47.972;11.662;2024-01-06T08:50:44;3.50;;;1.83;;
66437;SDS011;54537;47.972;11.662;2024-01-06T08:53:11;4.28;;;1.60;;
66437;SDS011;54537;47.972;11.662;2024-01-06T08:55:38;3.58;;;1.65;;
66437;SDS011;54537;47.972;11.662;2024-01-06T08:58:06;2.58;;;1.70;;
66437;SDS011;54537;47.972;11.662;2024-01-06T09:00:32;4.80;;;2.10;;
66437;SDS011;54537;47.972;11.662;2024-01-06T09:02:59;4.47;;;1.83;;
66437;SDS011;54537;47.972;11.662;2024-01-06T09:05:25;5.30;;;2.53;;
66437;SDS011;54537;47.972;11.662;2024-01-06T09:07:52;7.05;;;3.15;;
66437;SDS011;54537;47.972;11.662;2024-01-06T09:10:19;5.15;;;2.90;;
66437;SDS011;54537;47.972;11.662;2024-01-06T09:12:45;5.50;;;2.55;;
66437;SDS011;54537;47.972;11.662;2024-01-06T09:15:14;4.53;;;2.33;;
66437;SDS011;54537;47.972;11.662;2024-01-06T09:17:41;4.68;;;2.10;;
66437;SDS011;54537;47.972;11.662;2024-01-06T09:20:07;2.78;;;1.40;;
66437;SDS011;54537;47.972;11.662;2024-01-06T09:22:34;3.00;;;1.73;;
66437;SDS011;54537;47.972;11.662;2024-01-06T09:25:01;4.38;;;1.77;;
66437;SDS011;54537;47.972;11.662;2024-01-06T09:27:27;3.30;;;1.70;;
66437;SDS011;54537;47.972;11.662;2024-01-06T09:29:54;4.03;;;2.00;;
66437;SDS011;54537;47.972;11.662;2024-01-06T09:32:22;3.38;;;2.03;;
66437;SDS011;54537;47.972;11.662;2024-01-06T09:34:49;2.53;;;1.40;;
66437;SDS011;54537;47.972;11.662;2024-01-06T09:37:15;2.78;;;1.40;;
66437;SDS011;54537;47.972;11.662;2024-01-06T09:39:42;1.77;;;1.20;;
66437;SDS011;54537;47.972;11.662;2024-01-06T09:42:08;3.75;;;1.67;;
66437;SDS011;54537;47.972;11.662;2024-01-06T09:44:36;3.20;;;1.63;;
66437;SDS011;54537;47.972;11.662;2024-01-06T09:47:03;3.92;;;1.90;;
66437;SDS011;54537;47.972;11.662;2024-01-06T09:49:32;5.28;;;2.53;;
66437;SDS011;54537;47.972;11.662;2024-01-06T09:51:59;4.53;;;2.28;;
66437;SDS011;54537;47.972;11.662;2024-01-06T09:54:25;4.78;;;1.90;;
66437;SDS011;54537;47.972;11.662;2024-01-06T09:56:58;3.63;;;1.58;;
66437;SDS011;54537;47.972;11.662;2024-01-06T09:59:25;2.25;;;1.33;;
66437;SDS011;54537;47.972;11.662;2024-01-06T10:01:52;3.08;;;1.38;;
66437;SDS011;54537;47.972;11.662;2024-01-06T10:04:19;2.72;;;1.40;;
66437;SDS011;54537;47.972;11.662;2024-01-06T10:06:47;1.48;;;0.90;;
66437;SDS011;54537;47.972;11.662;2024-01-06T10:09:13;2.05;;;1.20;;
66437;SDS011;54537;47.972;11.662;2024-01-06T10:11:40;4.18;;;1.38;;
66437;SDS011;54537;47.972;11.662;2024-01-06T10:14:06;1.98;;;1.15;;
66437;SDS011;54537;47.972;11.662;2024-01-06T10:16:33;2.42;;;1.33;;
66437;SDS011;54537;47.972;11.662;2024-01-06T10:19:00;2.58;;;1.38;;
66437;SDS011;54537;47.972;11.662;2024-01-06T10:21:27;3.45;;;1.77;;
66437;SDS011;54537;47.972;11.662;2024-01-06T10:23:54;2.63;;;1.33;;
66437;SDS011;54537;47.972;11.662;2024-01-06T10:26:21;3.15;;;1.50;;
66437;SDS011;54537;47.972;11.662;2024-01-06T10:28:48;1.73;;;1.05;;
66437;SDS011;54537;47.972;11.662;2024-01-06T10:31:15;3.47;;;1.80;;
66437;SDS011;54537;47.972;11.662;2024-01-06T10:33:42;4.60;;;2.08;;
66437;SDS011;54537;47.972;11.662;2024-01-06T10:36:09;5.38;;;2.13;;
66437;SDS011;54537;47.972;11.662;2024-01-06T10:38:36;8.20;;;3.08;;
66437;SDS011;54537;47.972;11.662;2024-01-06T10:41:04;5.88;;;2.25;;
66437;SDS011;54537;47.972;11.662;2024-01-06T10:43:32;16.92;;;6.10;;
66437;SDS011;54537;47.972;11.662;2024-01-06T10:46:01;8.63;;;2.70;;
66437;SDS011;54537;47.972;11.662;2024-01-06T10:48:29;6.22;;;2.53;;
66437;SDS011;54537;47.972;11.662;2024-01-06T10:50:56;13.20;;;3.47;;
66437;SDS011;54537;47.972;11.662;2024-01-06T10:53:25;5.03;;;2.28;;
66437;SDS011;54537;47.972;11.662;2024-01-06T10:55:52;7.78;;;3.28;;
66437;SDS011;54537;47.972;11.662;2024-01-06T10:58:20;9.15;;;2.95;;
66437;SDS011;54537;47.972;11.662;2024-01-06T11:00:47;9.23;;;3.58;;
66437;SDS011;54537;47.972;11.662;2024-01-06T11:03:14;5.88;;;2.65;;
66437;SDS011;54537;47.972;11.662;2024-01-06T11:05:41;5.55;;;2.40;;
66437;SDS011;54537;47.972;11.662;2024-01-06T11:08:08;9.30;;;3.47;;
66437;SDS011;54537;47.972;11.662;2024-01-06T11:10:35;9.30;;;3.10;;
66437;SDS011;54537;47.972;11.662;2024-01-06T11:13:08;8.52;;;2.20;;
66437;SDS011;54537;47.972;11.662;2024-01-06T11:15:40;5.22;;;2.60;;
66437;SDS011;54537;47.972;11.662;2024-01-06T11:18:08;5.47;;;2.13;;
66437;SDS011;54537;47.972;11.662;2024-01-06T11:20:34;6.38;;;2.65;;
66437;SDS011;54537;47.972;11.662;2024-01-06T11:25:43;5.97;;;2.20;;
66437;SDS011;54537;47.972;11.662;2024-01-06T11:28:10;4.97;;;1.98;;
66437;SDS011;54537;47.972;11.662;2024-01-06T11:30:37;5.28;;;2.38;;
66437;SDS011;54537;47.972;11.662;2024-01-06T11:33:06;4.40;;;2.00;;
66437;SDS011;54537;47.972;11.662;2024-01-06T11:35:36;5.22;;;2.80;;
66437;SDS011;54537;47.972;11.662;2024-01-06T11:38:03;3.75;;;1.45;;
66437;SDS011;54537;47.972;11.662;2024-01-06T11:40:33;4.47;;;2.10;;
66437;SDS011;54537;47.972;11.662;2024-01-06T11:43:01;4.20;;;2.20;;
66437;SDS011;54537;47.972;11.662;2024-01-06T11:45:30;6.03;;;3.05;;
66437;SDS011;54537;47.972;11.662;2024-01-06T11:47:57;7.53;;;3.65;;
66437;SDS011;54537;47.972;11.662;2024-01-06T11:50:26;9.43;;;3.78;;
66437;SDS011;54537;47.972;11.662;2024-01-06T11:52:53;7.03;;;2.83;;
66437;SDS011;54537;47.972;11.662;2024-01-06T11:55:19;5.40;;;2.55;;
66437;SDS011;54537;47.972;11.662;2024-01-06T11:57:46;4.68;;;2.10;;
66437;SDS011;54537;47.972;11.662;2024-01-06T12:00:14;4.63;;;2.03;;
66437;SDS011;54537;47.972;11.662;2024-01-06T12:02:41;2.65;;;1.58;;
66437;SDS011;54537;47.972;11.662;2024-01-06T12:05:12;3.88;;;2.17;;
66437;SDS011;54537;47.972;11.662;2024-01-06T12:07:40;7.00;;;2.30;;
66437;SDS011;54537;47.972;11.662;2024-01-06T12:10:07;4.18;;;2.05;;
66437;SDS011;54537;47.972;11.662;2024-01-06T12:12:35;3.70;;;1.83;;
66437;SDS011;54537;47.972;11.662;2024-01-06T12:15:02;4.85;;;1.85;;
66437;SDS011;54537;47.972;11.662;2024-01-06T12:17:29;4.22;;;1.92;;
66437;SDS011;54537;47.972;11.662;2024-01-06T12:19:56;8.32;;;2.85;;
66437;SDS011;54537;47.972;11.662;2024-01-06T12:22:23;5.03;;;2.42;;
66437;SDS011;54537;47.972;11.662;2024-01-06T12:24:51;5.57;;;2.50;;
66437;SDS011;54537;47.972;11.662;2024-01-06T12:27:17;5.22;;;2.03;;
66437;SDS011;54537;47.972;11.662;2024-01-06T12:29:46;4.35;;;2.03;;
66437;SDS011;54537;47.972;11.662;2024-01-06T12:32:13;4.10;;;1.98;;
66437;SDS011;54537;47.972;11.662;2024-01-06T12:34:39;6.10;;;2.63;;
66437;SDS011;54537;47.972;11.662;2024-01-06T12:37:06;5.70;;;2.72;;
66437;SDS011;54537;47.972;11.662;2024-01-06T12:39:33;5.97;;;2.45;;
66437;SDS011;54537;47.972;11.662;2024-01-06T12:42:02;6.88;;;2.65;;
66437;SDS011;54537;47.972;11.662;2024-01-06T12:44:29;4.70;;;2.17;;
66437;SDS011;54537;47.972;11.662;2024-01-06T12:46:57;4.55;;;1.75;;
66437;SDS011;54537;47.972;11.662;2024-01-06T12:49:24;6.85;;;2.50;;
66437;SDS011;54537;47.972;11.662;2024-01-06T12:51:50;4.57;;;2.05;;
66437;SDS011;54537;47.972;11.662;2024-01-06T12:54:17;5.25;;;2.13;;
66437;SDS011;54537;47.972;11.662;2024-01-06T12:56:43;4.05;;;1.83;;
66437;SDS011;54537;47.972;11.662;2024-01-06T12:59:11;6.97;;;2.40;;
66437;SDS011;54537;47.972;11.662;2024-01-06T13:01:38;7.32;;;3.10;;
66437;SDS011;54537;47.972;11.662;2024-01-06T13:04:05;7.15;;;2.53;;
66437;SDS011;54537;47.972;11.662;2024-01-06T13:06:31;4.45;;;2.25;;
66437;SDS011;54537;47.972;11.662;2024-01-06T13:08:57;4.25;;;2.08;;
66437;SDS011;54537;47.972;11.662;2024-01-06T13:11:24;6.55;;;2.88;;
66437;SDS011;54537;47.972;11.662;2024-01-06T13:13:51;6.03;;;2.78;;
66437;SDS011;54537;47.972;11.662;2024-01-06T13:16:19;7.03;;;2.97;;
66437;SDS011;54537;47.972;11.662;2024-01-06T13:18:45;8.57;;;3.45;;
66437;SDS011;54537;47.972;11.662;2024-01-06T13:21:12;9.25;;;3.78;;
66437;SDS011;54537;47.972;11.662;2024-01-06T13:23:38;8.02;;;3.45;;
66437;SDS011;54537;47.972;11.662;2024-01-06T13:26:05;8.63;;;3.78;;
66437;SDS011;54537;47.972;11.662;2024-01-06T13:28:32;9.65;;;3.45;;
66437;SDS011;54537;47.972;11.662;2024-01-06T13:30:58;9.57;;;4.32;;
66437;SDS011;54537;47.972;11.662;2024-01-06T13:33:26;9.60;;;4.22;;
66437;SDS011;54537;47.972;11.662;2024-01-06T13:35:54;11.50;;;4.80;;
66437;SDS011;54537;47.972;11.662;2024-01-06T13:38:20;10.65;;;3.80;;
66437;SDS011;54537;47.972;11.662;2024-01-06T13:40:47;9.00;;;3.60;;
66437;SDS011;54537;47.972;11.662;2024-01-06T13:43:14;11.88;;;4.93;;
66437;SDS011;54537;47.972;11.662;2024-01-06T13:45:41;14.70;;;5.60;;
66437;SDS011;54537;47.972;11.662;2024-01-06T13:48:08;12.63;;;5.53;;
66437;SDS011;54537;47.972;11.662;2024-01-06T13:50:36;11.00;;;4.68;;
66437;SDS011;54537;47.972;11.662;2024-01-06T13:53:03;10.40;;;4.43;;
66437;SDS011;54537;47.972;11.662;2024-01-06T13:55:31;14.27;;;5.80;;
66437;SDS011;54537;47.972;11.662;2024-01-06T13:57:58;14.35;;;5.43;;
66437;SDS011;54537;47.972;11.662;2024-01-06T14:00:24;15.77;;;6.10;;
66437;SDS011;54537;47.972;11.662;2024-01-06T14:02:52;12.98;;;5.38;;
66437;SDS011;54537;47.972;11.662;2024-01-06T14:05:19;11.77;;;4.97;;
66437;SDS011;54537;47.972;11.662;2024-01-06T14:07:46;14.30;;;5.28;;
66437;SDS011;54537;47.972;11.662;2024-01-06T14:10:15;10.32;;;4.30;;
66437;SDS011;54537;47.972;11.662;2024-01-06T14:12:42;12.73;;;4.57;;
66437;SDS011;54537;47.972;11.662;2024-01-06T14:15:09;11.93;;;4.95;;
66437;SDS011;54537;47.972;11.662;2024-01-06T14:17:35;13.55;;;5.00;;
66437;SDS011;54537;47.972;11.662;2024-01-06T14:20:02;8.93;;;4.20;;
66437;SDS011;54537;47.972;11.662;2024-01-06T14:22:29;19.05;;;6.55;;
66437;SDS011;54537;47.972;11.662;2024-01-06T14:24:57;21.98;;;7.85;;
66437;SDS011;54537;47.972;11.662;2024-01-06T14:27:24;14.82;;;7.20;;
66437;SDS011;54537;47.972;11.662;2024-01-06T14:29:51;17.48;;;7.80;;
66437;SDS011;54537;47.972;11.662;2024-01-06T14:32:20;17.33;;;7.65;;
66437;SDS011;54537;47.972;11.662;2024-01-06T14:34:48;16.33;;;6.75;;